Time;durP1;ratioP1;P1;durP2;ratioP2;P2;SDS_P1;SDS_P2;PMS_P1;PMS_P2;Temp;Humidity;BMP_temperature;BMP_pressure;BME280_temperature;BME280_humidity;BME280_pressure;Samples;Min_cycle;Max_cycle;Signal;HPM_P1;HPM_P2
2024/01/31 00:00:55;;;;;;;1.43;1.33;;;;;;;5.73;100.00;103325.84;6157880;23;20009;-93
2024/01/31 00:03:21;;;;;;;1.15;1.13;;;;;;;5.61;100.00;103297.88;6156819;23;20016;-93
2024/01/31 00:05:46;;;;;;;1.37;1.17;;;;;;;5.63;100.00;103306.50;6157278;23;20009;-92
2024/01/31 00:08:34;;;;;;;1.40;1.20;;;;;;;5.74;100.00;103319.91;6157099;23;20032;-93
2024/01/31 00:11:00;;;;;;;1.10;1.00;;;;;;;5.69;100.00;103299.06;6157437;23;20002;-93
2024/01/31 00:13:47;;;;;;;1.02;0.98;;;;;;;5.75;100.00;103313.94;6157530;23;20005;-92
2024/01/31 00:16:13;;;;;;;0.90;0.73;;;;;;;5.65;100.00;103302.31;6157494;23;20009;-93
2024/01/31 00:18:39;;;;;;;1.10;1.00;;;;;;;5.62;100.00;103296.16;6157551;23;20008;-92
2024/01/31 00:21:21;;;;;;;1.30;1.13;;;;;;;5.64;100.00;103310.84;6157109;23;20005;-93
2024/01/31 00:23:46;;;;;;;1.02;0.93;;;;;;;5.75;100.00;103338.81;6158072;23;20009;-93
2024/01/31 00:26:12;;;;;;;1.33;1.10;;;;;;;5.63;100.00;103319.41;6157734;23;20012;-92
2024/01/31 00:29:29;;;;;;;1.13;1.00;;;;;;;5.78;100.00;103338.94;6157947;23;20002;-92
2024/01/31 00:31:54;;;;;;;1.10;0.98;;;;;;;5.64;100.00;103318.59;6158569;23;20016;-92
2024/01/31 00:34:20;;;;;;;1.03;1.00;;;;;;;5.72;100.00;103343.03;6157592;23;20009;-92
2024/01/31 00:37:00;;;;;;;1.73;0.93;;;;;;;5.76;100.00;103345.72;6158752;23;20001;-93
2024/01/31 00:39:31;;;;;;;1.67;0.98;;;;;;;5.76;100.00;103350.88;6158018;23;20006;-93
2024/01/31 00:42:18;;;;;;;1.10;1.00;;;;;;;5.67;100.00;103339.34;6158773;23;19998;-92
2024/01/31 00:44:43;;;;;;;0.65;0.65;;;;;;;5.67;100.00;103344.50;6159269;23;20006;-94
2024/01/31 00:47:09;;;;;;;2.07;1.13;;;;;;;5.74;100.00;103363.69;6161008;23;20002;-92
2024/01/31 00:49:58;;;;;;;0.90;0.90;;;;;;;5.76;100.00;103361.19;6161583;23;20005;-92
2024/01/31 00:52:24;;;;;;;1.38;1.10;;;;;;;5.70;100.00;103361.78;6163180;23;20069;-93
2024/01/31 00:57:34;;;;;;;1.43;1.20;;;;;;;5.57;100.00;103338.03;6172401;23;20014;-92
2024/01/31 01:00:05;;;;;;;1.05;0.80;;;;;;;5.70;100.00;103360.09;6176890;23;20001;-92
2024/01/31 01:05:53;;;;;;;1.05;0.90;;;;;;;5.68;100.00;103368.59;6163938;23;20056;-92
2024/01/31 01:08:41;;;;;;;1.27;1.00;;;;;;;5.53;100.00;103343.88;6157823;23;20001;-93
2024/01/31 01:11:06;;;;;;;2.08;1.20;;;;;;;5.55;100.00;103354.25;6156166;23;20010;-93
2024/01/31 01:13:50;;;;;;;1.57;1.07;;;;;;;5.67;100.00;103378.00;6156787;23;20002;-92
2024/01/31 01:16:16;;;;;;;2.13;1.40;;;;;;;5.58;100.00;103356.97;6156185;23;20001;-93
2024/01/31 01:18:41;;;;;;;2.00;1.50;;;;;;;5.64;100.00;103369.25;6156158;23;20005;-92
2024/01/31 01:21:31;;;;;;;2.25;1.50;;;;;;;5.62;100.00;103370.88;6156502;23;20002;-93
2024/01/31 01:23:56;;;;;;;1.63;1.50;;;;;;;5.61;100.00;103375.16;6156426;23;20363;-92
2024/01/31 01:26:40;;;;;;;1.33;1.23;;;;;;;5.48;100.00;103344.47;6154140;23;20076;-92
2024/01/31 01:29:07;;;;;;;1.30;1.20;;;;;;;5.53;100.00;103364.50;6155683;23;20088;-92
2024/01/31 01:31:51;;;;;;;2.13;1.25;;;;;;;5.60;100.00;103375.97;6156527;23;20077;-93
2024/01/31 01:34:17;;;;;;;1.65;1.25;;;;;;;5.43;100.00;103346.84;6155966;23;20005;-93
2024/01/31 01:36:42;;;;;;;1.60;1.13;;;;;;;5.48;100.00;103353.06;6155960;23;20009;-93
2024/01/31 01:39:30;;;;;;;1.37;1.27;;;;;;;5.56;100.00;103377.53;6155753;23;20016;-93
2024/01/31 01:41:57;;;;;;;2.00;1.20;;;;;;;5.48;100.00;103359.94;6156068;23;20052;-92
2024/01/31 01:44:53;;;;;;;1.38;1.10;;;;;;;5.45;100.00;103364.94;6155793;23;20270;-93
2024/01/31 01:47:35;;;;;;;1.25;1.15;;;;;;;5.46;100.00;103361.56;6105021;23;20009;-93
2024/01/31 01:50:03;;;;;;;1.13;1.10;;;;;;;5.43;100.00;103361.41;6156312;23;20008;-93
2024/01/31 01:52:47;;;;;;;1.20;1.00;;;;;;;5.46;100.00;103364.13;6155962;23;20016;-93
2024/01/31 01:55:12;;;;;;;1.02;0.95;;;;;;;5.51;100.00;103360.94;6156284;23;20017;-93
2024/01/31 01:58:03;;;;;;;1.00;0.90;;;;;;;5.54;100.00;103368.84;6155404;23;20021;-93
2024/01/31 02:00:31;;;;;;;1.85;1.20;;;;;;;5.50;100.00;103361.75;6156501;23;20084;-93
2024/01/31 02:03:11;;;;;;;1.48;1.23;;;;;;;5.45;100.00;103350.38;6128525;23;20013;-92
2024/01/31 02:05:38;;;;;;;1.33;1.23;;;;;;;5.52;100.00;103366.97;6155673;23;20093;-93
2024/01/31 02:08:35;;;;;;;1.50;1.00;;;;;;;5.52;100.00;103365.28;6155567;23;20013;-93
2024/01/31 02:11:18;;;;;;;2.20;1.20;;;;;;;5.45;100.00;103350.38;6156247;23;20001;-93
2024/01/31 02:13:44;;;;;;;1.15;1.05;;;;;;;5.40;100.00;103352.72;6155692;23;20089;-93
2024/01/31 02:16:09;;;;;;;2.10;1.30;;;;;;;5.44;100.00;103363.16;6155929;23;20025;-92
2024/01/31 02:18:53;;;;;;;1.35;1.10;;;;;;;5.46;100.00;103361.56;6156389;23;20028;-93
2024/01/31 02:21:19;;;;;;;1.25;1.15;;;;;;;5.36;100.00;103348.25;6155746;23;20057;-93
2024/01/31 02:23:45;;;;;;;1.10;1.00;;;;;;;5.47;100.00;103361.59;6155537;23;20002;-92
2024/01/31 02:26:10;;;;;;;1.93;1.10;;;;;;;5.47;100.00;103364.19;6155810;23;20005;-93
2024/01/31 02:28:53;;;;;;;1.60;0.80;;;;;;;5.47;100.00;103353.88;6155682;23;20005;-93
2024/01/31 02:31:19;;;;;;;1.63;1.10;;;;;;;5.35;100.00;103341.34;6155291;23;20009;-93
2024/01/31 02:33:44;;;;;;;1.00;1.00;;;;;;;5.47;100.00;103364.19;6155717;23;20016;-93
2024/01/31 02:36:30;;;;;;;2.80;1.13;;;;;;;5.47;100.00;103365.91;6155755;23;20017;-93
2024/01/31 02:41:39;;;;;;;0.82;0.82;;;;;;;5.33;100.00;103347.22;6155289;23;20037;-94
2024/01/31 02:44:04;;;;;;;0.90;0.80;;;;;;;5.44;100.00;103365.75;6155995;23;20387;-94
2024/01/31 02:46:30;;;;;;;1.25;1.15;;;;;;;5.40;100.00;103362.16;6156031;23;20415;-93
2024/01/31 02:49:19;;;;;;;1.08;1.05;;;;;;;5.42;100.00;103370.84;6156028;23;20359;-93
2024/01/31 02:51:44;;;;;;;0.73;0.73;;;;;;;5.30;100.00;103350.53;6156706;23;20310;-93
2024/01/31 02:54:40;;;;;;;0.70;0.70;;;;;;;5.40;100.00;103365.59;6155675;23;20411;-93
2024/01/31 02:57:06;;;;;;;1.05;0.95;;;;;;;5.37;100.00;103355.16;6155301;23;20048;-94
2024/01/31 02:59:31;;;;;;;0.82;0.82;;;;;;;5.38;100.00;103356.03;6156339;23;20025;-93
2024/01/31 03:01:57;;;;;;;1.03;1.03;;;;;;;5.36;100.00;103350.81;6154680;23;20005;-93
2024/01/31 03:04:22;;;;;;;1.47;0.97;;;;;;;5.32;100.00;103343.75;6155634;23;20005;-93
2024/01/31 03:06:47;;;;;;;1.17;1.07;;;;;;;5.33;100.00;103348.09;6156116;23;20011;-93
2024/01/31 03:09:13;;;;;;;1.00;1.00;;;;;;;5.32;100.00;103341.19;6155422;23;20288;-93
2024/01/31 03:11:38;;;;;;;1.13;1.02;;;;;;;5.32;100.00;103337.75;6157879;23;20534;-93
2024/01/31 03:14:03;;;;;;;0.73;0.73;;;;;;;5.25;100.00;103321.13;6158029;23;20081;-93
2024/01/31 03:16:29;;;;;;;0.90;0.90;;;;;;;5.26;100.00;103328.91;6158160;23;20009;-93
2024/01/31 03:18:56;;;;;;;1.07;1.03;;;;;;;5.31;100.00;103339.41;6158042;23;20006;-93
2024/01/31 03:21:25;;;;;;;1.52;1.10;;;;;;;5.21;100.00;103325.25;6136892;23;20508;-92
2024/01/31 03:23:50;;;;;;;1.45;1.00;;;;;;;5.17;100.00;103314.72;6157460;23;20088;-94
2024/01/31 03:26:16;;;;;;;1.10;1.10;;;;;;;5.16;100.00;103300.09;6157361;23;20005;-93
2024/01/31 03:29:01;;;;;;;3.67;1.10;;;;;;;5.21;100.00;103319.19;6157903;23;20016;-93
2024/01/31 03:31:27;;;;;;;1.38;1.10;;;;;;;5.24;100.00;103322.78;6157708;23;20009;-93
2024/01/31 03:34:11;;;;;;;1.30;1.17;;;;;;;5.16;100.00;103300.09;6157523;23;20005;-93
2024/01/31 03:36:37;;;;;;;3.53;1.33;;;;;;;5.28;100.00;103323.84;6157397;23;20001;-93
2024/01/31 03:39:02;;;;;;;0.97;0.97;;;;;;;5.24;100.00;103314.19;6157595;23;20272;-93
2024/01/31 03:42:21;;;;;;;1.35;1.00;;;;;;;5.24;100.00;103320.22;6157451;23;20242;-93
2024/01/31 03:44:45;;;;;;;0.90;0.90;;;;;;;5.15;100.00;103296.63;6156800;23;20009;-94
2024/01/31 03:47:35;;;;;;;1.23;1.07;;;;;;;5.22;100.00;103311.56;6157382;23;20033;-92
2024/01/31 03:50:12;;;;;;;;;;;;;;;;;;;;;
2024/01/31 03:52:46;;;;;;;1.27;1.00;;;;;;;5.18;100.00;103312.22;6039438;23;20090;-94
2024/01/31 03:55:11;;;;;;;1.20;1.10;;;;;;;5.15;100.00;103306.06;6038805;23;20015;-93
2024/01/31 03:57:36;;;;;;;0.70;0.70;;;;;;;5.17;100.00;103315.59;6038717;23;20192;-93
2024/01/31 04:00:23;;;;;;;0.85;0.85;;;;;;;5.06;100.00;103293.63;6039056;23;20434;-93
2024/01/31 04:02:49;;;;;;;1.58;1.20;;;;;;;5.08;100.00;103294.59;6039099;23;20085;-94
2024/01/31 04:05:16;;;;;;;1.92;1.10;;;;;;;5.16;100.00;103310.41;6038591;23;20007;-94
2024/01/31 04:07:59;;;;;;;1.20;1.10;;;;;;;5.14;100.00;103301.72;6037953;23;20338;-94
2024/01/31 04:10:24;;;;;;;1.33;1.23;;;;;;;5.04;100.00;103283.25;6038807;23;20373;-93
2024/01/31 04:12:50;;;;;;;1.40;1.30;;;;;;;5.13;100.00;103311.09;6104468;23;20025;-93
2024/01/31 04:15:38;;;;;;;2.92;1.52;;;;;;;5.14;100.00;103301.72;6131106;23;20048;-94
2024/01/31 04:18:04;;;;;;;1.52;1.20;;;;;;;5.01;100.00;103282.25;6157495;23;20036;-94
2024/01/31 04:20:51;;;;;;;2.10;1.50;;;;;;;5.15;100.00;103299.19;6157801;23;20009;-93
2024/01/31 04:23:17;;;;;;;1.38;1.27;;;;;;;5.06;100.00;103293.63;6157361;23;20080;-94
2024/01/31 04:25:42;;;;;;;2.67;1.20;;;;;;;5.04;100.00;103290.97;6157044;23;20001;-94
2024/01/31 04:28:31;;;;;;;1.08;1.02;;;;;;;5.16;100.00;103307.81;6156987;23;20001;-93
2024/01/31 04:30:57;;;;;;;2.05;1.23;;;;;;;5.03;100.00;103288.31;6157930;23;20008;-93
2024/01/31 04:33:52;;;;;;;1.67;1.50;;;;;;;5.02;100.00;103286.56;6157436;23;20399;-93
2024/01/31 04:36:39;;;;;;;1.48;1.38;;;;;;;5.16;100.00;103305.25;6131712;23;20035;-93
2024/01/31 04:39:05;;;;;;;1.55;1.38;;;;;;;5.05;100.00;103292.75;6157879;23;20016;-93
2024/01/31 04:41:30;;;;;;;1.47;1.33;;;;;;;5.03;100.00;103286.66;6158140;23;20001;-93
2024/01/31 04:44:12;;;;;;;2.22;1.80;;;;;;;5.10;100.00;103304.13;6157490;23;20059;-94
2024/01/31 04:46:38;;;;;;;1.70;1.58;;;;;;;4.99;100.00;103284.72;6157677;23;20056;-94
2024/01/31 04:49:03;;;;;;;1.77;1.50;;;;;;;5.03;100.00;103286.66;6158030;23;20005;-93
2024/01/31 04:51:49;;;;;;;1.70;1.33;;;;;;;5.13;100.00;103307.66;6157996;23;20005;-94
2024/01/31 04:54:16;;;;;;;1.92;1.58;;;;;;;5.07;100.00;103303.97;6157088;23;20136;-93
2024/01/31 04:56:42;;;;;;;1.80;1.55;;;;;;;5.10;100.00;103303.25;6157931;23;20020;-93
2024/01/31 04:59:25;;;;;;;1.60;1.50;;;;;;;4.97;100.00;103280.31;6158936;23;20089;-94
2024/01/31 05:01:52;;;;;;;2.45;1.90;;;;;;;5.00;100.00;103289.06;6159129;23;20028;-93
2024/01/31 05:04:37;;;;;;;3.83;2.15;;;;;;;5.12;100.00;103303.31;6159923;23;20005;-94
2024/01/31 05:07:04;;;;;;;3.22;2.10;;;;;;;5.08;100.00;103287.72;6160861;23;20005;-93
2024/01/31 05:09:49;;;;;;;3.25;2.05;;;;;;;5.08;100.00;103298.03;6162374;23;20032;-93
2024/01/31 05:12:15;;;;;;;2.70;1.80;;;;;;;4.98;100.00;103288.09;6163795;23;20081;-94
2024/01/31 05:14:58;;;;;;;3.03;2.00;;;;;;;4.98;100.00;103280.38;6165529;23;20434;-93
2024/01/31 05:17:24;;;;;;;2.60;1.90;;;;;;;4.97;100.00;103285.47;6170009;23;20005;-93
2024/01/31 05:20:05;;;;;;;3.03;2.00;;;;;;;5.00;100.00;103289.06;6179603;23;20009;-93
2024/01/31 05:22:31;;;;;;;3.55;2.10;;;;;;;4.96;100.00;103284.56;6172948;23;20426;-93
2024/01/31 05:28:21;;;;;;;3.47;2.30;;;;;;;5.08;100.00;103298.03;6160728;23;20049;-93
2024/01/31 05:30:47;;;;;;;4.13;2.10;;;;;;;5.08;100.00;103300.59;6156223;23;20035;-92
2024/01/31 05:33:46;;;;;;;3.33;2.13;;;;;;;5.08;100.00;103297.16;6156342;23;20377;-93
2024/01/31 05:36:12;;;;;;;5.00;2.28;;;;;;;5.04;100.00;103280.69;6154239;23;20080;-93
2024/01/31 05:38:39;;;;;;;3.33;2.20;;;;;;;5.10;100.00;103301.56;6156241;23;20118;-93
2024/01/31 05:41:04;;;;;;;3.15;2.10;;;;;;;5.11;100.00;103307.59;6156420;23;20013;-94
2024/01/31 05:43:30;;;;;;;4.90;2.50;;;;;;;5.08;100.00;103294.59;6155883;23;20001;-93
2024/01/31 05:45:56;;;;;;;3.10;2.20;;;;;;;5.10;100.00;103298.97;6156963;23;20064;-93
2024/01/31 05:48:21;;;;;;;3.55;2.40;;;;;;;5.09;100.00;103298.94;6156308;23;20012;-94
2024/01/31 05:53:30;;;;;;;3.40;2.20;;;;;;;5.02;100.00;103290.03;6155861;23;20021;-93
2024/01/31 05:56:15;;;;;;;3.33;2.40;;;;;;;5.08;100.00;103297.16;6155930;23;20005;-94
2024/01/31 05:58:41;;;;;;;3.42;2.28;;;;;;;5.05;100.00;103282.47;6155486;23;20080;-93
2024/01/31 06:01:29;;;;;;;5.03;2.70;;;;;;;5.15;100.00;103296.63;6155968;23;20005;-93
2024/01/31 06:03:54;;;;;;;3.70;2.30;;;;;;;5.10;100.00;103288.69;6156034;23;20081;-94
2024/01/31 06:06:40;;;;;;;3.70;2.33;;;;;;;4.98;100.00;103270.09;6155903;23;20012;-94
2024/01/31 06:09:05;;;;;;;4.57;2.20;;;;;;;5.06;100.00;103289.38;6155464;23;20009;-93
2024/01/31 06:11:31;;;;;;;4.10;2.37;;;;;;;5.04;100.00;103288.41;6155428;23;20009;-93
2024/01/31 06:13:56;;;;;;;3.63;2.40;;;;;;;5.04;100.00;103280.69;6156096;23;20013;-93
2024/01/31 06:16:35;;;;;;;6.47;2.70;;;;;;;5.10;100.00;103288.69;6155305;23;20035;-94
2024/01/31 06:19:01;;;;;;;3.63;2.28;;;;;;;5.11;100.00;103281.88;6156185;23;20546;-93
2024/01/31 06:24:36;;;;;;;4.55;2.70;;;;;;;5.15;100.00;103277.72;6156198;23;20025;-93
2024/01/31 06:27:01;;;;;;;5.28;2.80;;;;;;;5.16;100.00;103279.50;6155953;23;20005;-94
2024/01/31 06:29:26;;;;;;;5.60;2.80;;;;;;;5.14;100.00;103273.41;6155713;23;20010;-92
2024/01/31 06:32:20;;;;;;;6.43;3.13;;;;;;;5.15;100.00;103270.00;6155662;23;20445;-94
2024/01/31 06:34:58;;;;;;;7.45;3.42;;;;;;;5.08;100.00;103255.97;6144296;23;20009;-90
2024/01/31 06:37:23;;;;;;;6.57;3.25;;;;;;;5.04;100.00;103254.94;6156216;23;20017;-91
2024/01/31 06:40:18;;;;;;;6.37;3.10;;;;;;;5.08;100.00;103267.13;6155643;23;20001;-91
2024/01/31 06:43:05;;;;;;;8.75;3.50;;;;;;;5.08;100.00;103258.53;6155969;23;20005;-93
2024/01/31 06:45:30;;;;;;;9.80;4.00;;;;;;;4.96;100.00;103227.94;6157902;23;20104;-93
2024/01/31 06:48:18;;;;;;;9.93;4.10;;;;;;;5.06;100.00;103253.34;6158374;23;20297;-93
2024/01/31 06:50:43;;;;;;;9.77;4.07;;;;;;;4.95;100.00;103236.50;6157532;23;20005;-93
2024/01/31 06:53:08;;;;;;;8.10;3.83;;;;;;;5.04;100.00;103249.81;6156954;23;20028;-93
2024/01/31 06:56:00;;;;;;;7.55;3.63;;;;;;;5.04;100.00;103244.66;6157600;23;20045;-93
2024/01/31 06:58:45;;;;;;;11.18;4.30;;;;;;;4.89;100.00;103224.25;6156858;23;20013;-93
2024/01/31 07:03:57;;;;;;;8.07;3.95;;;;;;;4.92;100.00;103242.38;6157870;23;20393;-92
2024/01/31 07:06:41;;;;;;;7.63;3.80;;;;;;;4.90;100.00;103245.69;6158789;23;20005;-93
2024/01/31 07:09:06;;;;;;;5.60;3.20;;;;;;;4.91;100.00;103257.75;6158000;23;20084;-93
2024/01/31 07:11:31;;;;;;;7.20;3.20;;;;;;;4.93;100.00;103280.16;6157253;23;20006;-94
2024/01/31 07:17:19;;;;;;;6.70;3.45;;;;;;;5.04;100.00;103323.53;6157720;23;20029;-93
2024/01/31 07:23:05;;;;;;;7.65;3.60;;;;;;;4.92;100.00;103311.84;6157742;23;20065;-93
2024/01/31 07:26:24;;;;;;;6.50;3.50;;;;;;;5.04;100.00;103347.63;6157447;23;20001;-92
2024/01/31 07:28:51;;;;;;;8.88;3.75;;;;;;;4.91;100.00;103327.25;6157218;23;20005;-92
2024/01/31 07:31:28;;;;;;;8.50;3.42;;;;;;;4.93;100.00;103336.78;6156373;23;20010;-92
2024/01/31 07:34:08;;;;;;;7.18;3.55;;;;;;;4.90;100.00;103331.47;6157839;23;20009;-91
2024/01/31 07:36:34;;;;;;;6.68;3.30;;;;;;;4.90;100.00;103328.91;6157325;23;20008;-91
2024/01/31 07:39:21;;;;;;;5.70;3.13;;;;;;;5.06;100.00;103355.41;6159207;23;20018;-93
2024/01/31 07:41:46;;;;;;;7.20;3.30;;;;;;;4.99;100.00;103343.06;6158121;23;20009;-92
2024/01/31 07:44:30;;;;;;;6.10;3.00;;;;;;;5.03;100.00;103351.00;6131313;23;20010;-92
2024/01/31 07:46:56;;;;;;;6.35;3.13;;;;;;;5.00;100.00;103345.69;6157846;23;20010;-92
2024/01/31 07:49:40;;;;;;;5.27;2.90;;;;;;;5.10;100.00;103352.19;6157511;23;20760;-93
2024/01/31 07:52:06;;;;;;;6.93;3.30;;;;;;;5.06;100.00;103351.16;6157656;23;20032;-93
2024/01/31 07:54:55;;;;;;;6.90;3.10;;;;;;;5.12;100.00;103359.97;6157001;23;20002;-93
2024/01/31 07:57:35;;;;;;;4.50;2.80;;;;;;;5.05;100.00;103353.63;6157338;23;20060;-92
2024/01/31 08:00:21;;;;;;;5.28;2.80;;;;;;;4.98;100.00;103344.72;6157717;23;20016;-92
2024/01/31 08:03:05;;;;;;;7.15;3.40;;;;;;;5.06;100.00;103345.09;6157615;23;20011;-93
2024/01/31 08:06:23;;;;;;;7.18;3.45;;;;;;;5.12;100.00;103357.38;6152261;23;20426;-92
2024/01/31 08:09:07;;;;;;;6.90;3.17;;;;;;;5.13;100.00;103352.28;6156907;23;20001;-92
2024/01/31 08:11:50;;;;;;;6.85;3.42;;;;;;;5.01;100.00;103337.16;6157238;23;20084;-92
2024/01/31 08:14:16;;;;;;;6.63;3.40;;;;;;;5.08;100.00;103341.78;6157664;23;20430;-93
2024/01/31 08:17:03;;;;;;;7.43;3.33;;;;;;;5.14;100.00;103337.75;6157122;23;20008;-92
2024/01/31 08:19:28;;;;;;;7.38;3.63;;;;;;;5.13;100.00;103335.97;6157326;23;20077;-91
2024/01/31 08:22:11;;;;;;;11.23;4.50;;;;;;;5.10;100.00;103341.88;6156644;23;20001;-92
2024/01/31 08:24:37;;;;;;;11.48;4.63;;;;;;;5.03;100.00;103327.81;6156611;23;20001;-92
2024/01/31 08:27:27;;;;;;;10.63;4.50;;;;;;;5.18;100.00;103349.97;6156247;23;20016;-92
2024/01/31 08:29:52;;;;;;;9.00;3.95;;;;;;;5.17;100.00;103345.63;6156417;23;20008;-84
2024/01/31 08:35:02;;;;;;;8.98;4.15;;;;;;;5.13;100.00;103329.13;6155905;23;20343;-90
2024/01/31 08:37:54;;;;;;;7.60;3.97;;;;;;;5.23;100.00;103328.78;6154723;23;20062;-95
2024/01/31 08:40:39;;;;;;;11.32;4.35;;;;;;;5.25;100.00;103331.41;6157377;23;20013;-94
2024/01/31 08:43:04;;;;;;;9.07;4.30;;;;;;;5.16;100.00;103305.25;6156847;23;20005;-95
2024/01/31 08:45:53;;;;;;;11.50;4.93;;;;;;;5.26;100.00;103318.59;6156675;23;20008;-94
2024/01/31 08:48:18;;;;;;;10.95;4.70;;;;;;;5.26;100.00;103310.00;6157840;23;20005;-96
2024/01/31 08:51:09;;;;;;;16.77;6.73;;;;;;;5.31;100.00;103311.09;6157237;23;20005;-95
2024/01/31 08:53:34;;;;;;;14.43;5.68;;;;;;;5.25;100.00;103298.81;6154115;23;20141;-88
2024/01/31 08:56:00;;;;;;;15.13;5.97;;;;;;;5.24;100.00;103291.91;6155006;23;20428;-85
2024/01/31 08:58:48;;;;;;;21.90;9.83;;;;;;;5.40;100.00;103305.50;6141511;23;20009;-87
2024/01/31 09:01:35;;;;;;;20.05;8.25;;;;;;;5.37;100.00;103308.81;6152082;23;20002;-85
2024/01/31 09:04:00;;;;;;;18.15;7.90;;;;;;;5.40;100.00;103306.34;6155368;23;20002;-87
2024/01/31 09:06:26;;;;;;;18.47;7.47;;;;;;;5.40;100.00;103301.19;6153306;23;20009;-84
2024/01/31 09:09:06;;;;;;;18.23;7.47;;;;;;;5.35;100.00;103276.06;6155577;23;20431;-88
2024/01/31 09:11:40;;;;;;;15.80;6.90;;;;;;;5.48;100.00;103292.97;6155922;23;20001;-89
2024/01/31 09:17:28;;;;;;;16.10;6.47;;;;;;;5.51;100.00;103283.69;6159632;23;20472;-87
2024/01/31 09:20:11;;;;;;;14.45;5.82;;;;;;;5.38;100.00;103255.59;6160673;23;20041;-93
2024/01/31 09:22:38;;;;;;;16.30;6.57;;;;;;;5.50;100.00;103265.59;6158783;23;20056;-94
2024/01/31 09:25:19;;;;;;;18.77;7.60;;;;;;;5.48;100.00;103251.75;6159383;23;20006;-94
2024/01/31 09:27:44;;;;;;;18.92;7.78;;;;;;;5.53;100.00;103253.72;6160292;23;20001;-94
2024/01/31 09:30:25;;;;;;;22.20;9.43;;;;;;;5.53;100.00;103237.38;6161428;23;20029;-94
2024/01/31 09:33:08;;;;;;;24.40;10.90;;;;;;;5.59;100.00;103242.81;6161474;23;20006;-90
2024/01/31 09:35:52;;;;;;;24.42;11.13;;;;;;;5.60;100.00;103235.94;6162770;23;20364;-88
2024/01/31 09:38:18;;;;;;;21.90;9.85;;;;;;;5.60;100.00;103242.00;6163902;23;20064;-90
2024/01/31 09:41:03;;;;;;;21.00;9.27;;;;;;;5.69;100.00;103247.53;6165501;23;20009;-89
2024/01/31 09:43:47;;;;;;;23.95;10.30;;;;;;;5.68;100.00;103238.06;6174180;23;20005;-89
2024/01/31 09:46:35;;;;;;;21.73;9.52;;;;;;;5.71;100.00;103237.28;6155442;23;20080;-89
2024/01/31 09:49:00;;;;;;;22.40;9.85;;;;;;;5.61;100.00;103209.38;6156405;23;20427;-88
2024/01/31 09:51:37;;;;;;;;;;;;;;;5.75;100.00;103234.06;6156788;23;20194;-91
2024/01/31 09:54:21;;;;;;;26.03;11.07;;;;;;;5.65;100.00;103214.72;6155916;23;19909;-90
2024/01/31 09:57:01;;;;;;;26.58;12.45;;;;;;;5.67;100.00;103205.38;6155989;23;20732;-90
2024/01/31 09:59:35;;;;;;;23.17;11.07;;;;;;;5.70;100.00;103208.09;6153965;23;20002;-90
2024/01/31 10:02:01;;;;;;;22.92;10.15;;;;;;;5.84;100.00;103221.56;6155518;23;20006;-90
2024/01/31 10:04:49;;;;;;;22.10;10.40;;;;;;;5.96;100.00;103239.25;6155253;23;20010;-91
2024/01/31 10:07:39;;;;;;;22.77;10.73;;;;;;;6.02;100.00;103241.25;6154527;23;20033;-88
2024/01/31 10:10:21;;;;;;;22.23;10.30;;;;;;;5.97;100.00;103224.66;6153939;23;20013;-88
2024/01/31 10:12:49;;;;;;;20.02;8.88;;;;;;;6.03;100.00;103228.41;6154390;23;20025;-88
2024/01/31 10:15:24;;;;;;;19.15;7.90;;;;;;;6.20;100.00;103251.41;6154158;23;20010;-88
2024/01/31 10:17:49;;;;;;;18.83;7.47;;;;;;;6.22;100.00;103246.34;6153766;23;20010;-87
2024/01/31 10:20:33;;;;;;;16.17;6.47;;;;;;;6.17;100.00;103241.88;6156654;23;20075;-92
2024/01/31 10:23:00;;;;;;;14.38;5.80;;;;;;;6.26;100.00;103255.94;6156676;23;20001;-87
2024/01/31 10:25:25;;;;;;;14.27;5.80;;;;;;;6.16;100.00;103239.22;6155556;23;20009;-85
2024/01/31 10:28:07;;;;;;;13.60;5.75;;;;;;;6.21;100.00;103253.19;6155642;23;20043;-85
2024/01/31 10:30:39;;;;;;;13.38;5.50;;;;;;;6.26;100.00;103261.09;6154577;23;20331;-85
2024/01/31 10:33:14;;;;;;;14.38;5.97;;;;;;;6.13;100.00;103242.56;6155907;23;20005;-82
2024/01/31 10:35:45;;;;;;;13.55;5.40;;;;;;;6.27;100.00;103268.03;6156156;23;20347;-90
2024/01/31 10:38:38;;;;;;;14.93;5.53;;;;;;;6.14;100.00;103233.13;6157126;23;20376;-91
2024/01/31 10:41:06;;;;;;;9.85;4.40;;;;;;;6.21;100.00;103247.16;6129543;23;20021;-91
2024/01/31 10:43:44;;;;;;;10.73;4.45;;;;;;;6.21;100.00;103242.00;6129644;23;20009;-91
2024/01/31 10:46:09;;;;;;;13.18;5.65;;;;;;;6.22;100.00;103247.22;6157163;23;20005;-91
2024/01/31 10:48:35;;;;;;;11.33;5.00;;;;;;;6.26;100.00;103261.09;6157216;23;20005;-91
2024/01/31 10:51:19;;;;;;;11.17;4.33;;;;;;;6.20;100.00;103241.09;6157400;23;20446;-91
2024/01/31 10:53:45;;;;;;;9.90;4.30;;;;;;;6.27;100.00;103247.41;6156793;23;20017;-90
2024/01/31 10:56:11;;;;;;;10.90;4.32;;;;;;;6.28;100.00;103249.16;6156961;23;20012;-92
2024/01/31 10:58:37;;;;;;;7.63;3.93;;;;;;;6.35;100.00;103253.78;6156309;23;20077;-84
2024/01/31 11:01:04;;;;;;;10.37;4.30;;;;;;;6.32;100.00;103241.63;6157153;23;20010;-88
2024/01/31 11:03:29;;;;;;;;;;;;;;;6.36;100.00;103240.03;6158903;23;20076;-91
2024/01/31 11:05:55;;;;;;;10.33;4.57;;;;;;;6.32;100.00;103231.28;6157455;23;19908;-92
2024/01/31 11:08:21;;;;;;;9.87;4.47;;;;;;;6.36;100.00;103234.00;6156427;23;20001;-92
2024/01/31 11:10:48;;;;;;;10.20;4.63;;;;;;;6.36;100.00;103234.88;6157618;23;20028;-93
2024/01/31 11:13:14;;;;;;;9.52;4.28;;;;;;;6.30;100.00;103220.06;6157446;23;20016;-92
2024/01/31 11:15:40;;;;;;;8.63;4.33;;;;;;;6.32;100.00;103220.13;6156970;23;20494;-93
2024/01/31 11:18:13;;;;;;;10.57;4.43;;;;;;;6.38;100.00;103214.31;6157594;23;20025;-92
2024/01/31 11:20:52;;;;;;;9.40;4.30;;;;;;;6.33;100.00;103207.28;6156853;23;20465;-92
2024/01/31 11:23:20;;;;;;;10.95;4.78;;;;;;;6.32;100.00;103202.91;6157596;23;20373;-93
2024/01/31 11:25:46;;;;;;;13.20;5.35;;;;;;;6.34;100.00;103201.28;6157539;23;20006;-90
2024/01/31 11:28:12;;;;;;;11.87;5.33;;;;;;;6.33;100.00;103199.53;6157281;23;20032;-93
2024/01/31 11:30:39;;;;;;;11.77;5.50;;;;;;;6.29;100.00;103186.44;6155094;23;20483;-91
2024/01/31 11:33:05;;;;;;;9.55;4.53;;;;;;;6.28;100.00;103175.28;6157136;23;20009;-93
2024/01/31 11:35:31;;;;;;;10.27;4.90;;;;;;;6.34;100.00;103183.25;6157423;23;20036;-92
2024/01/31 11:37:57;;;;;;;9.70;4.57;;;;;;;6.33;100.00;103167.72;6156573;23;20138;-92
2024/01/31 11:40:31;;;;;;;7.35;3.90;;;;;;;6.33;100.00;103159.97;6156675;23;20017;-91
2024/01/31 11:43:19;;;;;;;11.13;5.10;;;;;;;6.24;100.00;103139.00;6161806;23;20014;-90
2024/01/31 11:45:44;;;;;;;16.05;6.72;;;;;;;6.36;100.00;103146.31;6157184;23;20085;-90
2024/01/31 11:48:32;;;;;;;14.60;6.80;;;;;;;6.29;100.00;103121.97;6156483;23;20029;-91
2024/01/31 11:50:58;;;;;;;13.70;6.28;;;;;;;6.24;100.00;103113.19;6156571;23;20002;-90
2024/01/31 11:53:24;;;;;;;11.30;5.60;;;;;;;6.26;100.00;103112.44;6156880;23;20499;-91
2024/01/31 11:56:08;;;;;;;16.90;7.65;;;;;;;6.38;100.00;103124.91;6157202;23;20025;-92
2024/01/31 11:58:36;;;;;;;15.88;7.20;;;;;;;6.20;100.00;103098.41;6156957;23;20418;-91
2024/01/31 12:01:02;;;;;;;16.75;7.97;;;;;;;6.33;100.00;103114.41;6158240;23;20017;-91
2024/01/31 12:03:49;;;;;;;14.23;7.03;;;;;;;6.33;100.00;103108.41;6158208;23;20005;-90
2024/01/31 12:06:20;;;;;;;16.52;7.50;;;;;;;6.29;100.00;103099.66;6157314;23;20025;-91
2024/01/31 12:09:05;;;;;;;15.15;7.47;;;;;;;6.17;100.00;103076.84;6156976;23;20005;-93
2024/01/31 12:11:33;;;;;;;15.32;7.20;;;;;;;6.29;100.00;103096.19;6157202;23;20032;-96
2024/01/31 12:14:18;;;;;;;13.73;6.82;;;;;;;6.31;100.00;103104.88;6157040;23;20076;-87
2024/01/31 12:16:43;;;;;;;13.50;6.32;;;;;;;6.23;100.00;103086.50;6156015;23;20006;-92
2024/01/31 12:19:10;;;;;;;13.23;6.30;;;;;;;6.28;100.00;103089.28;6155761;23;20020;-89
2024/01/31 12:24:30;;;;;;;13.73;6.63;;;;;;;6.17;100.00;103069.09;6156217;23;20093;-91
2024/01/31 12:26:56;;;;;;;14.40;6.90;;;;;;;6.17;100.00;103061.38;6156895;23;20014;-90
2024/01/31 12:29:21;;;;;;;13.10;6.73;;;;;;;6.23;100.00;103065.88;6156190;23;20002;-91
2024/01/31 12:31:46;;;;;;;13.90;6.37;;;;;;;6.28;100.00;103068.63;6157136;23;20060;-90